Time;durP1;ratioP1;P1;durP2;ratioP2;P2;SDS_P1;SDS_P2;PMS_P1;PMS_P2;Temp;Humidity;BMP_temperature;BMP_pressure;BME280_temperature;BME280_humidity;BME280_pressure;Samples;Min_cycle;Max_cycle;Signal;HPM_P1;HPM_P2
2023/01/27 00:02:19;;;;;;;104.40;38.30;;;;;;;-0.27;100.00;98739.03;4970990;28;20078;-54
2023/01/27 00:04:44;;;;;;;103.97;38.20;;;;;;;-0.14;100.00;98751.13;4982530;28;20559;-57
2023/01/27 00:07:10;;;;;;;103.13;38.07;;;;;;;-0.14;100.00;98748.59;4966233;28;20062;-58
2023/01/27 00:09:36;;;;;;;103.10;37.03;;;;;;;-0.08;100.00;98751.25;4970724;28;20038;-56
2023/01/27 00:14:45;;;;;;;101.33;36.67;;;;;;;-0.05;100.00;98747.97;4971529;28;20050;-59
2023/01/27 00:17:11;;;;;;;103.23;37.93;;;;;;;-0.04;100.00;98747.13;4969027;28;20682;-56
2023/01/27 00:19:36;;;;;;;103.50;38.70;;;;;;;-0.09;100.00;98733.59;4968349;28;20055;-59
2023/01/27 00:24:46;;;;;;;102.80;38.30;;;;;;;-0.03;100.00;98744.66;4968472;28;20070;-55
2023/01/27 00:27:12;;;;;;;102.33;37.47;;;;;;;-0.20;100.00;98730.81;4967721;28;21257;-57
2023/01/27 00:29:39;;;;;;;101.93;37.17;;;;;;;-0.12;100.00;98736.88;4969277;28;20053;-56
2023/01/27 00:34:49;;;;;;;102.33;37.63;;;;;;;-0.14;100.00;98745.22;4967017;28;20369;-58
2023/01/27 00:37:16;;;;;;;102.63;37.87;;;;;;;-0.26;100.00;98728.16;4969095;28;20614;-58
2023/01/27 00:39:42;;;;;;;102.37;37.87;;;;;;;-0.13;100.00;98752.81;4969939;28;20053;-57
2023/01/27 00:42:09;;;;;;;101.97;37.43;;;;;;;-0.13;100.00;98746.94;4969209;28;20500;-55
2023/01/27 00:44:35;;;;;;;101.87;37.30;;;;;;;-0.13;100.00;98757.03;4970498;28;20053;-59
2023/01/27 00:47:00;;;;;;;99.57;36.37;;;;;;;-0.15;100.00;98751.94;4971490;28;20421;-58
2023/01/27 00:49:26;;;;;;;102.13;37.77;;;;;;;-0.13;100.00;98757.84;4970524;28;20095;-58
2023/01/27 00:51:53;;;;;;;102.77;37.77;;;;;;;-0.10;100.00;98757.94;4969837;28;20855;-58
2023/01/27 00:54:19;;;;;;;101.33;37.33;;;;;;;-0.11;100.00;98768.81;4966310;28;20040;-56
2023/01/27 00:56:45;;;;;;;102.33;38.17;;;;;;;-0.11;100.00;98751.19;4968430;28;20286;-58
2023/01/27 00:59:11;;;;;;;101.20;37.47;;;;;;;-0.10;100.00;98752.91;4982871;28;20038;-56
2023/01/27 01:01:37;;;;;;;102.50;37.87;;;;;;;-0.08;100.00;98758.81;4969800;28;20287;-59
2023/01/27 01:04:03;;;;;;;102.10;37.43;;;;;;;-0.23;100.00;98742.47;4970041;28;20646;-56
2023/01/27 01:06:30;;;;;;;102.37;37.40;;;;;;;-0.18;100.00;98759.41;4986182;28;20062;-59
2023/01/27 01:08:56;;;;;;;102.33;38.10;;;;;;;-0.17;100.00;98761.09;4968790;28;20038;-58
2023/01/27 01:11:23;;;;;;;103.33;38.60;;;;;;;-0.14;100.00;98767.91;4969514;28;20058;-56
2023/01/27 01:13:49;;;;;;;102.13;37.50;;;;;;;-0.12;100.00;98767.13;4967452;28;20281;-56
2023/01/27 01:16:19;;;;;;;102.67;37.67;;;;;;;-0.15;100.00;98758.63;4968109;28;20909;-54
2023/01/27 01:18:45;;;;;;;102.47;37.60;;;;;;;-0.15;100.00;98766.19;4976857;28;20335;-55
2023/01/27 01:21:11;;;;;;;103.17;37.90;;;;;;;-0.16;100.00;98772.91;4970939;28;20270;-58
2023/01/27 01:23:39;;;;;;;101.23;37.17;;;;;;;-0.35;100.00;98732.09;4985961;28;20039;-55
2023/01/27 01:26:05;;;;;;;103.20;38.17;;;;;;;-0.19;100.00;98761.88;4968700;28;20329;-56
2023/01/27 01:28:31;;;;;;;104.90;38.43;;;;;;;-0.15;100.00;98764.53;4970153;28;20337;-56
2023/01/27 01:31:04;;;;;;;105.40;38.67;;;;;;;-0.17;100.00;98762.78;4983829;28;20042;-57
2023/01/27 01:33:30;;;;;;;105.37;38.67;;;;;;;-0.17;100.00;98756.06;4969783;28;20281;-58
2023/01/27 01:36:03;;;;;;;104.03;38.23;;;;;;;-0.33;100.00;98730.44;4966472;28;20460;-56
2023/01/27 01:38:29;;;;;;;104.27;38.37;;;;;;;-0.18;100.00;98754.38;4966584;28;20865;-57
2023/01/27 01:40:58;;;;;;;104.40;38.50;;;;;;;-0.34;100.00;98724.56;4966903;28;20400;-57
2023/01/27 01:43:26;;;;;;;104.07;38.43;;;;;;;-0.21;100.00;98743.38;4967281;28;20840;-59
2023/01/27 01:45:56;;;;;;;104.37;37.90;;;;;;;-0.25;100.00;98744.09;4968264;28;20074;-59
2023/01/27 01:48:28;;;;;;;104.23;38.30;;;;;;;-0.28;100.00;98742.34;4967553;28;20289;-57
2023/01/27 01:50:59;;;;;;;101.37;36.93;;;;;;;-0.42;100.00;98713.44;4982999;28;20278;-58
2023/01/27 01:53:32;;;;;;;102.33;37.07;;;;;;;-0.24;100.00;98744.13;4969200;28;20376;-60
2023/01/27 01:56:04;;;;;;;102.63;37.67;;;;;;;-0.33;100.00;98722.91;4971346;28;20631;-59
2023/01/27 01:58:30;;;;;;;103.23;38.03;;;;;;;-0.23;100.00;98745.00;4984213;28;20667;-59
2023/01/27 02:00:56;;;;;;;102.60;37.60;;;;;;;-0.22;100.00;98740.00;4975545;28;20285;-59
2023/01/27 02:03:24;;;;;;;102.33;37.17;;;;;;;-0.36;100.00;98718.66;4968449;28;20387;-59
2023/01/27 02:05:53;;;;;;;101.67;36.87;;;;;;;-0.38;100.00;98710.19;4984245;28;20054;-61
2023/01/27 02:08:51;;;;;;;103.60;38.30;;;;;;;-0.23;100.00;98735.78;4969013;28;20286;-61
2023/01/27 02:11:17;;;;;;;103.83;39.20;;;;;;;-0.23;100.00;98737.44;4972336;28;20669;-59
2023/01/27 02:13:44;;;;;;;102.13;37.37;;;;;;;-0.51;100.00;98698.13;4967990;28;20832;-59
2023/01/27 02:16:11;;;;;;;103.27;38.00;;;;;;;-0.35;100.00;98743.03;4969268;28;20042;-58
2023/01/27 02:18:41;;;;;;;102.40;37.20;;;;;;;-0.34;100.00;98729.59;4971030;28;20282;-59
2023/01/27 02:21:08;;;;;;;102.90;37.87;;;;;;;-0.45;100.00;98708.34;4982101;28;20290;-58
2023/01/27 02:23:49;;;;;;;100.87;36.50;;;;;;;-0.46;100.00;98707.47;4981967;28;20288;-58
2023/01/27 02:26:20;;;;;;;101.00;36.97;;;;;;;-0.48;100.00;98718.34;4972075;28;20097;-59
2023/01/27 02:28:54;;;;;;;101.93;37.60;;;;;;;-0.43;100.00;98710.91;4987256;28;20289;-59
2023/01/27 02:31:20;;;;;;;101.60;37.77;;;;;;;-0.48;100.00;98719.19;4977990;28;20326;-60
2023/01/27 02:33:47;;;;;;;101.80;37.80;;;;;;;-0.40;100.00;98723.56;4969347;28;20318;-59
2023/01/27 02:36:15;;;;;;;101.17;37.90;;;;;;;-0.54;100.00;98682.94;4984554;28;20293;-60
2023/01/27 02:38:51;;;;;;;98.53;36.83;;;;;;;-0.38;100.00;98699.28;4986458;28;20305;-60
2023/01/27 02:41:20;;;;;;;99.47;37.40;;;;;;;-0.36;100.00;98697.66;4987402;28;20317;-59
2023/01/27 02:43:47;;;;;;;99.07;36.87;;;;;;;-0.37;100.00;98699.31;4988989;28;20281;-56
2023/01/27 02:46:14;;;;;;;98.67;37.03;;;;;;;-0.52;100.00;98684.69;4972555;28;20312;-58
2023/01/27 02:48:40;;;;;;;98.53;38.30;;;;;;;-0.58;100.00;98689.56;4971985;28;20417;-59
2023/01/27 02:51:06;;;;;;;96.63;36.17;;;;;;;-0.70;100.00;98680.84;4980280;28;20357;-58
2023/01/27 02:53:34;;;;;;;97.20;36.77;;;;;;;-0.62;100.00;98699.50;4972174;28;20290;-57
2023/01/27 02:55:59;;;;;;;96.47;36.37;;;;;;;-0.79;100.00;98660.47;4984639;28;20301;-57
2023/01/27 02:58:25;;;;;;;96.00;35.93;;;;;;;-0.62;100.00;98679.34;4970587;28;20050;-60
2023/01/27 03:00:55;;;;;;;96.87;36.30;;;;;;;-0.84;100.00;98651.94;4975014;28;20070;-60
2023/01/27 03:03:21;;;;;;;95.43;35.30;;;;;;;-0.65;100.00;98689.34;4973507;28;20332;-61
2023/01/27 03:05:49;;;;;;;94.70;35.63;;;;;;;-0.66;100.00;98690.16;4974836;28;20563;-58
2023/01/27 03:08:18;;;;;;;96.17;36.03;;;;;;;-0.68;100.00;98695.16;4982812;28;20038;-59
2023/01/27 03:10:50;;;;;;;95.57;36.20;;;;;;;-0.74;100.00;98679.06;4985244;28;20284;-58
2023/01/27 03:13:20;;;;;;;;;;;;;;;-0.62;100.00;98690.28;4970812;28;20046;-58
2023/01/27 03:18:32;;;;;;;95.37;36.00;;;;;;;-0.69;100.00;98682.53;4969856;28;20290;-58
2023/01/27 03:21:03;;;;;;;95.23;35.77;;;;;;;-0.65;100.00;98674.25;4972991;28;20285;-58
2023/01/27 03:23:33;;;;;;;95.53;36.27;;;;;;;-0.59;100.00;98684.47;4977716;28;20369;-59
2023/01/27 03:26:00;;;;;;;95.97;35.67;;;;;;;-0.77;100.00;98647.13;4975774;28;20740;-59
2023/01/27 03:28:27;;;;;;;95.10;35.57;;;;;;;-0.54;100.00;98683.78;4974049;28;20300;-65
2023/01/27 03:31:07;;;;;;;95.43;35.83;;;;;;;-0.53;100.00;98680.47;4983643;28;20306;-58
2023/01/27 03:33:47;;;;;;;96.30;36.43;;;;;;;-0.58;100.00;98671.94;4977841;28;20326;-60
2023/01/27 03:47:49;;;;;;;96.07;35.83;;;;;;;-0.64;100.00;98670.94;4980964;28;20781;-57
2023/01/27 03:50:18;;;;;;;95.20;35.87;;;;;;;-0.60;100.00;98668.53;4973206;28;20729;-56
2023/01/27 03:53:01;;;;;;;94.33;35.60;;;;;;;-0.58;100.00;98661.84;4970878;28;20042;-59
2023/01/27 03:55:34;;;;;;;94.50;35.47;;;;;;;-0.61;100.00;98666.81;4974476;28;20294;-57
2023/01/27 03:58:18;;;;;;;94.70;35.97;;;;;;;-0.57;100.00;98667.75;4973143;28;20740;-59
2023/01/27 04:01:11;;;;;;;94.67;35.80;;;;;;;-0.45;100.00;98665.53;4969888;28;20382;-58
2023/01/27 04:09:09;;;;;;;93.93;35.63;;;;;;;-0.28;100.00;98679.41;4969891;28;20674;-57
2023/01/27 04:11:54;;;;;;;94.30;35.43;;;;;;;-0.38;100.00;98656.47;4970069;28;20301;-57
2023/01/27 04:14:34;;;;;;;94.63;35.57;;;;;;;-0.41;100.00;98686.59;4972929;28;20283;-55
2023/01/27 04:17:06;;;;;;;94.83;35.67;;;;;;;-0.29;100.00;98686.91;4969920;28;20713;-51
2023/01/27 04:19:32;;;;;;;94.57;35.53;;;;;;;-0.45;100.00;98678.13;4987914;28;20292;-56
2023/01/27 04:21:59;;;;;;;93.60;35.30;;;;;;;-0.55;100.00;98678.69;4970743;28;20313;-57
2023/01/27 04:24:25;;;;;;;93.60;35.73;;;;;;;-0.84;100.00;98652.78;4971435;28;20335;-52
2023/01/27 04:26:59;;;;;;;92.70;35.43;;;;;;;-0.61;100.00;98671.00;4970907;28;20286;-55
2023/01/27 04:29:28;;;;;;;92.37;35.37;;;;;;;-0.65;100.00;98676.78;4971440;28;20313;-57
2023/01/27 04:31:54;;;;;;;93.33;35.40;;;;;;;-0.35;100.00;98684.25;4970522;28;20362;-59
2023/01/27 04:34:20;;;;;;;94.73;35.80;;;;;;;-0.23;100.00;98684.53;4969466;28;20322;-59
2023/01/27 04:36:47;;;;;;;93.87;35.50;;;;;;;-0.20;100.00;98690.50;4967856;28;20674;-55
2023/01/27 04:39:15;;;;;;;94.43;36.10;;;;;;;-0.39;100.00;98682.47;4969321;28;20289;-56
2023/01/27 04:41:41;;;;;;;92.90;35.37;;;;;;;-0.47;100.00;98692.34;4968697;28;20318;-56
2023/01/27 04:44:07;;;;;;;92.53;35.43;;;;;;;-0.67;100.00;98678.38;4969804;28;20519;-55
2023/01/27 04:46:33;;;;;;;90.50;35.13;;;;;;;-0.76;100.00;98675.63;4969087;28;20047;-56
2023/01/27 04:49:00;;;;;;;92.70;35.57;;;;;;;-0.77;100.00;98689.03;4969842;28;20113;-55
2023/01/27 04:51:26;;;;;;;88.73;33.83;;;;;;;-0.78;100.00;98685.69;4968870;28;20285;-55
2023/01/27 04:53:52;;;;;;;90.57;34.87;;;;;;;-0.81;100.00;98670.50;4972458;28;20524;-55
2023/01/27 04:56:30;;;;;;;90.17;34.73;;;;;;;-0.89;100.00;98666.91;4972244;28;20312;-57
2023/01/27 04:59:01;;;;;;;90.07;34.73;;;;;;;-0.64;100.00;98676.81;4971140;28;20765;-54
2023/01/27 05:01:27;;;;;;;89.63;34.63;;;;;;;-0.59;100.00;98679.44;4970478;28;20308;-56
2023/01/27 05:03:54;;;;;;;90.00;34.90;;;;;;;-0.63;100.00;98676.00;4970638;28;20309;-54
2023/01/27 05:06:19;;;;;;;89.70;34.40;;;;;;;-0.67;100.00;98690.97;4971644;28;21064;-55
2023/01/27 05:08:46;;;;;;;91.00;35.00;;;;;;;-0.68;100.00;98681.75;4984269;28;20708;-56
2023/01/27 05:11:11;;;;;;;90.53;35.23;;;;;;;-0.67;100.00;98690.97;4969629;28;20290;-57
2023/01/27 05:13:37;;;;;;;89.83;34.60;;;;;;;-0.87;100.00;98672.00;4970526;28;20256;-54
2023/01/27 05:16:05;;;;;;;90.07;34.90;;;;;;;-0.61;100.00;98697.03;4971682;28;20047;-57
2023/01/27 05:18:31;;;;;;;91.60;35.50;;;;;;;-0.68;100.00;98690.13;4984692;28;20274;-55
2023/01/27 05:21:01;;;;;;;92.30;35.43;;;;;;;-0.79;100.00;98666.34;4969714;28;20301;-56
2023/01/27 05:23:36;;;;;;;93.17;35.53;;;;;;;-0.64;100.00;98696.97;4970549;28;20072;-56
2023/01/27 05:26:09;;;;;;;93.70;35.57;;;;;;;-0.81;100.00;98662.09;4970514;28;20281;-56
2023/01/27 05:28:36;;;;;;;94.27;36.27;;;;;;;-0.80;100.00;98661.25;4969661;28;20285;-56
2023/01/27 05:31:08;;;;;;;93.03;35.43;;;;;;;-0.72;100.00;98685.81;4969839;28;20305;-55
2023/01/27 05:33:34;;;;;;;93.03;35.53;;;;;;;-0.75;100.00;98692.44;4970021;28;20780;-55
2023/01/27 05:36:01;;;;;;;92.20;35.67;;;;;;;-0.75;100.00;98690.78;4980883;28;20682;-59
2023/01/27 05:38:27;;;;;;;91.00;34.77;;;;;;;-0.79;100.00;98681.44;4968749;28;20053;-57
2023/01/27 05:41:01;;;;;;;92.07;35.30;;;;;;;-0.69;100.00;98692.63;4969474;28;20294;-54
2023/01/27 05:43:28;;;;;;;91.00;35.57;;;;;;;-0.85;100.00;98681.31;4967479;28;20182;-57
2023/01/27 05:46:03;;;;;;;90.50;35.37;;;;;;;-0.81;100.00;98694.81;4967142;28;20297;-57
2023/01/27 05:48:29;;;;;;;90.20;34.93;;;;;;;-0.88;100.00;98696.28;4969664;28;20775;-56
2023/01/27 05:50:58;;;;;;;91.00;35.10;;;;;;;-0.78;100.00;98702.44;4971867;28;20321;-56
2023/01/27 05:53:24;;;;;;;89.23;35.20;;;;;;;-0.81;100.00;98702.34;4967863;28;20101;-56
2023/01/27 05:55:51;;;;;;;88.87;34.70;;;;;;;-0.81;100.00;98704.88;4966104;28;20850;-54
2023/01/27 05:58:17;;;;;;;89.03;34.83;;;;;;;-0.79;100.00;98709.13;4968503;28;20289;-54
2023/01/27 06:00:43;;;;;;;89.80;35.07;;;;;;;-0.77;100.00;98699.97;4970492;28;20321;-57
2023/01/27 06:03:09;;;;;;;87.97;34.53;;;;;;;-0.85;100.00;98701.44;4969364;28;20301;-57
2023/01/27 06:05:34;;;;;;;91.33;35.40;;;;;;;-0.82;100.00;98700.66;4975503;28;20061;-59
2023/01/27 06:08:00;;;;;;;92.17;35.97;;;;;;;-0.77;100.00;98696.59;4969466;28;20106;-57
2023/01/27 06:10:25;;;;;;;90.93;35.67;;;;;;;-0.80;100.00;98701.53;4972976;28;20050;-56
2023/01/27 06:12:51;;;;;;;91.07;35.20;;;;;;;-0.81;100.00;98683.09;4973000;28;20046;-57
2023/01/27 06:15:16;;;;;;;90.00;34.87;;;;;;;-0.74;100.00;98705.06;4973453;28;20121;-56
2023/01/27 06:17:42;;;;;;;91.63;35.60;;;;;;;-0.94;100.00;98676.03;4971560;28;20248;-55
2023/01/27 06:20:08;;;;;;;89.57;34.80;;;;;;;-0.76;100.00;98709.19;4974643;28;20099;-56
2023/01/27 06:22:35;;;;;;;89.40;34.60;;;;;;;-0.87;100.00;98692.97;4990893;28;20053;-54
2023/01/27 06:25:00;;;;;;;87.50;33.83;;;;;;;-0.80;100.00;98704.03;4993948;28;20293;-56
2023/01/27 06:27:26;;;;;;;89.00;34.87;;;;;;;-0.83;100.00;98704.81;4975362;28;20049;-54
2023/01/27 06:29:52;;;;;;;88.03;33.93;;;;;;;-0.83;100.00;98709.00;4974480;28;20045;-55
2023/01/27 06:32:17;;;;;;;90.30;35.83;;;;;;;-0.93;100.00;98697.81;4973724;28;20053;-57
2023/01/27 06:34:43;;;;;;;89.50;34.97;;;;;;;-1.07;100.00;98673.97;4973177;28;20093;-57
2023/01/27 06:37:09;;;;;;;88.03;34.80;;;;;;;-1.09;100.00;98670.56;4972868;28;20072;-55
2023/01/27 06:39:34;;;;;;;87.77;34.63;;;;;;;-1.04;100.00;98669.03;4972676;28;20376;-56
2023/01/27 06:42:00;;;;;;;86.37;33.83;;;;;;;-0.88;100.00;98706.34;4972865;28;20390;-55
2023/01/27 06:44:26;;;;;;;87.27;33.93;;;;;;;-1.07;100.00;98679.88;4972207;28;20494;-57
2023/01/27 06:46:52;;;;;;;87.47;34.40;;;;;;;-0.92;100.00;98699.53;4970341;28;20061;-56
2023/01/27 06:49:18;;;;;;;87.90;34.47;;;;;;;-1.07;100.00;98676.50;4969753;28;20042;-56
2023/01/27 06:51:44;;;;;;;87.77;34.43;;;;;;;-1.08;100.00;98663.06;4972954;28;20167;-55
2023/01/27 06:54:10;;;;;;;86.47;33.57;;;;;;;-0.88;100.00;98705.50;4972111;28;20039;-56
2023/01/27 06:56:35;;;;;;;88.03;35.20;;;;;;;-1.01;100.00;98682.53;4971706;28;20043;-55
2023/01/27 06:59:01;;;;;;;88.77;34.53;;;;;;;-0.95;100.00;98699.47;4972340;28;20337;-57
2023/01/27 07:01:27;;;;;;;88.07;34.87;;;;;;;-0.93;100.00;98710.41;4970005;28;20062;-55
2023/01/27 07:03:53;;;;;;;87.50;34.30;;;;;;;-0.93;100.00;98700.34;4974919;28;20042;-56
2023/01/27 07:06:19;;;;;;;88.07;34.60;;;;;;;-1.13;100.00;98672.13;4973635;28;20122;-55
2023/01/27 07:08:46;;;;;;;87.80;34.50;;;;;;;-1.10;100.00;98667.19;4970764;28;20046;-57
2023/01/27 07:11:12;;;;;;;88.20;34.27;;;;;;;-0.89;100.00;98711.38;4969548;28;20286;-58
2023/01/27 07:13:38;;;;;;;86.87;34.13;;;;;;;-0.97;100.00;98706.97;4969785;28;20274;-57
2023/01/27 07:16:04;;;;;;;89.27;34.53;;;;;;;-0.88;100.00;98716.41;4972728;28;20538;-55
2023/01/27 07:18:30;;;;;;;90.70;35.40;;;;;;;-0.99;100.00;98706.09;4970974;28;20081;-56
2023/01/27 07:20:56;;;;;;;90.67;35.23;;;;;;;-0.83;100.00;98730.00;4970149;28;20253;-56
2023/01/27 07:23:21;;;;;;;89.97;34.90;;;;;;;-0.87;100.00;98737.41;4973391;28;20130;-58
2023/01/27 07:25:47;;;;;;;91.27;35.67;;;;;;;-0.83;100.00;98741.72;4969471;28;20050;-57
2023/01/27 07:28:13;;;;;;;92.30;35.77;;;;;;;-0.89;100.00;98731.50;4968397;28;20325;-55
2023/01/27 07:30:39;;;;;;;93.33;36.23;;;;;;;-0.83;100.00;98744.22;4966533;28;20050;-56
2023/01/27 07:33:13;;;;;;;92.07;35.23;;;;;;;-0.80;100.00;98754.38;4983849;28;20038;-54
2023/01/27 07:35:40;;;;;;;92.60;35.60;;;;;;;-0.81;100.00;98750.19;4969658;28;20813;-55
2023/01/27 07:38:06;;;;;;;92.87;35.70;;;;;;;-0.80;100.00;98746.81;4967717;28;20594;-59
2023/01/27 07:40:32;;;;;;;95.23;36.00;;;;;;;-0.90;100.00;98719.72;4984005;28;20792;-57
2023/01/27 07:42:59;;;;;;;92.07;34.73;;;;;;;-0.78;100.00;98733.50;4988612;28;20449;-58
2023/01/27 07:45:27;;;;;;;95.60;36.30;;;;;;;-0.74;100.00;98752.91;4972644;28;20380;-57
2023/01/27 07:47:58;;;;;;;93.23;35.77;;;;;;;-0.77;100.00;98755.34;4968723;28;20313;-54
2023/01/27 07:50:23;;;;;;;92.07;35.13;;;;;;;-0.91;100.00;98726.41;4984370;28;20575;-54
2023/01/27 07:52:49;;;;;;;92.73;35.50;;;;;;;-0.73;100.00;98752.09;4971120;28;20297;-56
2023/01/27 07:55:14;;;;;;;93.23;36.10;;;;;;;-0.81;100.00;98713.28;4970519;28;20555;-53
2023/01/27 07:57:40;;;;;;;91.57;35.20;;;;;;;-0.66;100.00;98756.47;4969708;28;20501;-55
2023/01/27 08:00:06;;;;;;;92.57;35.43;;;;;;;-0.74;100.00;98749.53;4971480;28;20046;-54
2023/01/27 08:02:37;;;;;;;91.97;35.13;;;;;;;-0.77;100.00;98754.47;4968768;28;20428;-57
2023/01/27 08:05:03;;;;;;;91.17;34.73;;;;;;;-0.72;100.00;98753.78;4970153;28;20745;-56
2023/01/27 08:07:29;;;;;;;93.50;35.80;;;;;;;-0.76;100.00;98756.16;4970731;28;20652;-56
2023/01/27 08:09:56;;;;;;;93.17;35.40;;;;;;;-0.83;100.00;98741.72;4985718;28;20449;-56
2023/01/27 08:12:22;;;;;;;92.93;35.60;;;;;;;-0.71;100.00;98764.69;4971936;28;20089;-57
2023/01/27 08:14:47;;;;;;;92.97;35.63;;;;;;;-0.69;100.00;98768.13;4970275;28;20737;-54
2023/01/27 08:17:13;;;;;;;92.73;35.23;;;;;;;-0.76;100.00;98756.16;4971834;28;20046;-58
2023/01/27 08:19:39;;;;;;;92.10;34.93;;;;;;;-0.71;100.00;98772.25;4968252;28;20647;-56
2023/01/27 08:22:04;;;;;;;92.67;35.23;;;;;;;-0.87;100.00;98738.25;4969702;28;20053;-55
2023/01/27 08:24:30;;;;;;;93.13;35.80;;;;;;;-0.66;100.00;98760.66;4971544;28;20133;-56
2023/01/27 08:26:56;;;;;;;92.13;35.07;;;;;;;-0.62;100.00;98762.44;4985462;28;20054;-55
2023/01/27 08:29:22;;;;;;;93.10;35.37;;;;;;;-0.68;100.00;98767.31;4985008;28;20363;-56
2023/01/27 08:31:47;;;;;;;92.83;35.27;;;;;;;-0.75;100.00;98768.78;4979034;28;20466;-55
2023/01/27 08:34:13;;;;;;;93.23;35.17;;;;;;;-0.68;100.00;98772.34;4970102;28;20476;-56
2023/01/27 08:36:41;;;;;;;92.70;35.17;;;;;;;-0.79;100.00;98756.09;4970138;28;20516;-57
2023/01/27 08:39:08;;;;;;;91.90;35.33;;;;;;;-0.78;100.00;98771.25;4969742;28;20297;-58
2023/01/27 08:41:35;;;;;;;92.10;35.13;;;;;;;-0.74;100.00;98779.72;4970970;28;20297;-57
2023/01/27 08:44:01;;;;;;;91.90;35.00;;;;;;;-0.71;100.00;98782.31;4969239;28;20337;-58
2023/01/27 08:46:27;;;;;;;92.57;35.37;;;;;;;-0.70;100.00;98772.31;4968942;28;20049;-58
2023/01/27 08:48:52;;;;;;;92.00;35.00;;;;;;;-0.69;100.00;98775.69;4970885;28;20066;-57
2023/01/27 08:51:18;;;;;;;91.60;35.03;;;;;;;-0.63;100.00;98781.72;4970347;28;20058;-54
2023/01/27 08:53:44;;;;;;;91.37;35.13;;;;;;;-0.72;100.00;98783.97;4970729;28;20050;-55
2023/01/27 08:56:12;;;;;;;90.97;35.03;;;;;;;-0.86;100.00;98750.03;4970421;28;20055;-56
2023/01/27 08:58:38;;;;;;;88.60;34.07;;;;;;;-0.71;100.00;98782.31;4970664;28;20038;-57
2023/01/27 09:01:05;;;;;;;90.77;34.67;;;;;;;-0.67;100.00;98774.88;4984561;28;20356;-55
2023/01/27 09:03:32;;;;;;;92.13;35.63;;;;;;;-0.57;100.00;98783.56;4970752;28;20031;-54
2023/01/27 09:05:58;;;;;;;92.17;35.20;;;;;;;-0.60;100.00;98773.41;4969992;28;20765;-56
2023/01/27 09:08:24;;;;;;;93.30;35.67;;;;;;;-0.70;100.00;98776.47;4969335;28;20361;-60
2023/01/27 09:10:50;;;;;;;92.90;35.27;;;;;;;-0.63;100.00;98760.72;4970164;28;20062;-53
2023/01/27 09:13:21;;;;;;;93.13;35.17;;;;;;;-0.46;100.00;98764.53;4971408;28;20273;-55
2023/01/27 09:15:49;;;;;;;93.80;35.60;;;;;;;-0.62;100.00;98733.09;4968578;28;20420;-55
2023/01/27 09:18:15;;;;;;;93.20;35.13;;;;;;;-0.31;100.00;98766.63;4969548;28;20775;-57
2023/01/27 09:20:40;;;;;;;93.07;35.07;;;;;;;-0.50;100.00;98750.16;4967682;28;20274;-57
2023/01/27 09:23:06;;;;;;;94.03;35.73;;;;;;;-0.57;100.00;98768.44;4985903;28;20047;-57
2023/01/27 09:25:31;;;;;;;93.33;35.53;;;;;;;-0.57;100.00;98768.44;4969458;28;20073;-53
2023/01/27 09:27:58;;;;;;;93.67;35.40;;;;;;;-0.54;100.00;98761.81;4969998;28;20398;-55
2023/01/27 09:30:26;;;;;;;93.77;35.43;;;;;;;-0.43;100.00;98771.34;4968386;28;20054;-57
2023/01/27 09:32:51;;;;;;;93.67;35.70;;;;;;;-0.68;100.00;98747.19;4968111;28;20292;-54
2023/01/27 09:35:18;;;;;;;93.13;35.10;;;;;;;-0.61;100.00;98766.66;4969397;28;20852;-54
2023/01/27 09:37:56;;;;;;;92.93;35.37;;;;;;;-0.56;100.00;98755.06;4969309;28;20252;-55
2023/01/27 09:40:47;;;;;;;94.17;35.83;;;;;;;-0.40;100.00;98777.31;4968738;28;20277;-54
2023/01/27 09:43:47;;;;;;;94.07;35.53;;;;;;;-0.49;100.00;98765.31;4968135;28;20612;-56
2023/01/27 09:46:49;;;;;;;92.70;35.20;;;;;;;-0.29;100.00;98792.69;4966778;28;20273;-57
2023/01/27 09:49:18;;;;;;;93.97;36.10;;;;;;;-0.32;100.00;98795.13;4967837;28;20290;-56
2023/01/27 09:52:23;;;;;;;96.37;35.70;;;;;;;-0.36;100.00;98784.13;4968701;28;20956;-61
2023/01/27 09:54:55;;;;;;;99.37;37.07;;;;;;;-0.10;100.00;98780.63;4969687;28;20277;-55
2023/01/27 09:57:32;;;;;;;99.97;37.57;;;;;;;0.06;100.00;98775.94;4969112;28;20282;-55
2023/01/27 10:00:24;;;;;;;99.57;37.33;;;;;;;0.00;100.00;98769.94;4972001;28;20286;-55
2023/01/27 10:03:22;;;;;;;98.10;36.27;;;;;;;-0.10;100.00;98770.53;4968194;28;20317;-54
2023/01/27 10:06:06;;;;;;;98.70;36.83;;;;;;;-0.08;100.00;98766.38;4983124;28;20464;-55
2023/01/27 10:08:39;;;;;;;99.17;37.07;;;;;;;0.07;100.00;98782.69;4970382;28;20281;-56
2023/01/27 10:11:34;;;;;;;98.23;36.13;;;;;;;0.05;100.00;98771.72;4968823;28;20298;-55
2023/01/27 10:14:42;;;;;;;98.47;36.57;;;;;;;0.03;100.00;98770.84;4969245;28;20270;-55
2023/01/27 10:17:10;;;;;;;97.40;36.20;;;;;;;0.01;100.00;98770.78;4985213;28;20343;-55
2023/01/27 10:19:42;;;;;;;97.97;36.40;;;;;;;0.04;100.00;98768.38;4982407;28;20281;-54
2023/01/27 10:22:26;;;;;;;99.20;36.70;;;;;;;0.09;100.00;98759.22;4985645;28;20709;-53
2023/01/27 10:25:33;;;;;;;99.57;37.00;;;;;;;0.07;100.00;98755.84;4983387;28;20629;-55
2023/01/27 10:28:07;;;;;;;97.97;36.60;;;;;;;0.12;100.00;98753.44;4983979;28;20343;-54
2023/01/27 10:30:36;;;;;;;98.03;36.57;;;;;;;0.08;100.00;98744.94;4984866;28;20428;-54
2023/01/27 10:33:24;;;;;;;99.00;36.83;;;;;;;-0.02;100.00;98751.41;4984464;28;20751;-55
2023/01/27 10:35:58;;;;;;;98.97;36.43;;;;;;;0.03;100.00;98766.66;4984642;28;20061;-57
2023/01/27 10:38:33;;;;;;;100.07;37.27;;;;;;;0.05;100.00;98749.03;4985129;28;20757;-56
2023/01/27 10:41:09;;;;;;;98.90;36.47;;;;;;;-0.01;100.00;98753.13;4985112;28;20301;-58
2023/01/27 10:43:40;;;;;;;98.50;36.50;;;;;;;0.04;100.00;98759.94;4983349;28;20328;-56
2023/01/27 10:46:21;;;;;;;97.17;35.73;;;;;;;-0.20;100.00;98725.78;4987849;28;20317;-57
2023/01/27 10:48:49;;;;;;;99.60;36.73;;;;;;;-0.04;100.00;98760.59;4973489;28;20331;-58
2023/01/27 10:51:30;;;;;;;100.33;37.20;;;;;;;0.09;100.00;98755.84;4972672;28;20530;-58
2023/01/27 10:54:23;;;;;;;99.70;36.33;;;;;;;0.01;100.00;98755.66;4973225;28;20364;-58
2023/01/27 10:56:55;;;;;;;99.73;36.60;;;;;;;0.04;100.00;98733.09;4972171;28;20328;-58
2023/01/27 10:59:49;;;;;;;97.87;35.87;;;;;;;0.10;100.00;98765.13;4970950;28;20711;-58
2023/01/27 11:02:26;;;;;;;99.23;36.67;;;;;;;-0.20;100.00;98708.13;4971688;28;20405;-57
2023/01/27 11:05:07;;;;;;;98.50;36.50;;;;;;;-0.07;100.00;98719.38;4971297;28;20708;-57
2023/01/27 11:07:45;;;;;;;98.13;36.77;;;;;;;-0.09;100.00;98708.41;4971338;28;20321;-57
2023/01/27 11:10:18;;;;;;;97.50;36.13;;;;;;;-0.07;100.00;98720.22;4972688;28;20281;-57
2023/01/27 11:12:48;;;;;;;98.47;36.40;;;;;;;0.10;100.00;98740.78;4970653;28;20277;-54
2023/01/27 11:15:23;;;;;;;99.00;36.87;;;;;;;0.03;100.00;98733.03;4972289;28;20277;-56
2023/01/27 11:17:57;;;;;;;98.17;36.30;;;;;;;0.00;100.00;98727.09;4972566;28;20284;-56
2023/01/27 11:20:38;;;;;;;98.27;36.87;;;;;;;-0.07;100.00;98702.56;4972809;28;20309;-55
2023/01/27 11:23:18;;;;;;;97.80;36.40;;;;;;;-0.01;100.00;98727.94;4970082;28;20779;-57
2023/01/27 11:26:08;;;;;;;97.67;36.43;;;;;;;0.06;100.00;98728.06;4970586;28;20289;-57
2023/01/27 11:28:59;;;;;;;96.80;35.93;;;;;;;0.09;100.00;98728.13;4978893;28;20277;-55
2023/01/27 11:31:49;;;;;;;97.70;37.00;;;;;;;0.06;100.00;98731.44;4970797;28;20280;-58
2023/01/27 11:34:51;;;;;;;96.77;36.47;;;;;;;0.03;100.00;98731.38;4969479;28;20730;-58
2023/01/27 11:37:20;;;;;;;97.47;36.70;;;;;;;-0.10;100.00;98694.09;4971103;28;20043;-57
2023/01/27 11:39:47;;;;;;;96.77;36.07;;;;;;;-0.02;100.00;98702.69;4971936;28;20289;-57
2023/01/27 11:42:14;;;;;;;96.10;35.97;;;;;;;0.25;100.00;98720.13;4968894;28;20423;-57
2023/01/27 11:44:42;;;;;;;97.93;36.80;;;;;;;-0.01;100.00;98710.31;4968952;28;20262;-57
2023/01/27 11:47:13;;;;;;;96.13;35.87;;;;;;;-0.11;100.00;98710.03;4973622;28;20320;-57
2023/01/27 11:49:47;;;;;;;95.77;35.67;;;;;;;0.07;100.00;98728.13;4972762;28;20287;-57
2023/01/27 11:52:18;;;;;;;94.87;35.13;;;;;;;0.12;100.00;98720.66;4974309;28;20365;-57